BOJ weather

Burgas Airport
Burgas, Burgas Province, Bulgaria

Public forecast

Using degrees Celsius for public forecast. Weather courtesy of forecast.io.

METAR (pilot weather report)

Retrieved 2019/02/16 21:30 UTC (17 minutes ago):

LBBG 162130Z 29004KT 9999 FEW043 01/00 Q1029 NOSIG

TAF (pilot weather forecast)

Retrieved 2019/02/16 18:18 UTC (3 hours ago):

TAF TAF LBBG 161700Z 1618/1718 26008KT 9999 BKN040 PROB30 TEMPO 1703/1707 5000 BR BECMG 1709/1711 11010KT CAVOK